createdAt,value
2022-09-28T00:01:25.792Z,67.83
2022-09-28T00:03:57.558Z,68.33
2022-09-28T00:06:27.799Z,68.05
2022-09-28T00:08:57.855Z,67.81
2022-09-28T00:11:28.257Z,67.19
2022-09-28T00:14:00.165Z,67.39
2022-09-28T00:16:31.170Z,67.40
2022-09-28T00:18:59.638Z,67.36
2022-09-28T00:21:30.114Z,70.93
2022-09-28T00:24:14.893Z,73.81
2022-09-28T00:26:46.314Z,73.94
2022-09-28T00:29:18.963Z,74.14
2022-09-28T00:31:47.650Z,76.31
2022-09-28T00:34:17.363Z,75.61
2022-09-28T00:36:47.283Z,76.02
2022-09-28T00:39:18.017Z,75.17
2022-09-28T00:41:47.442Z,75.34
2022-09-28T00:44:38.203Z,74.40
2022-09-28T00:47:33.914Z,74.42
2022-09-28T00:50:06.507Z,72.69
2022-09-28T00:52:40.639Z,71.74
2022-09-28T00:55:13.592Z,70.00
2022-09-28T00:57:46.739Z,69.95
2022-09-28T01:00:15.809Z,68.19
2022-09-28T01:02:45.506Z,66.39
2022-09-28T01:05:15.055Z,66.62
2022-09-28T01:07:45.765Z,66.83
2022-09-28T01:10:16.411Z,66.22
2022-09-28T01:12:44.966Z,66.18
2022-09-28T01:15:14.740Z,66.75
2022-09-28T01:18:04.007Z,67.32
2022-09-28T01:20:57.221Z,68.55
2022-09-28T01:24:01.596Z,69.97
2022-09-28T01:26:47.628Z,70.05
2022-09-28T01:29:31.496Z,71.11
2022-09-28T01:32:13.488Z,71.86
2022-09-28T01:34:49.372Z,72.11
2022-09-28T01:37:21.325Z,71.94
2022-09-28T01:39:53.071Z,71.08
2022-09-28T01:42:28.442Z,69.63
2022-09-28T01:45:04.284Z,68.49
2022-09-28T01:47:37.213Z,67.97
2022-09-28T01:50:12.503Z,68.62
2022-09-28T01:52:49.202Z,67.88
2022-09-28T01:55:26.174Z,68.86
2022-09-28T01:58:01.326Z,68.30
2022-09-28T02:00:30.922Z,66.50
2022-09-28T02:03:09.177Z,66.04
2022-09-28T02:05:49.735Z,65.10
2022-09-28T02:08:26.941Z,64.30
2022-09-28T02:11:10.427Z,64.24
2022-09-28T02:13:44.576Z,64.27
2022-09-28T02:16:20.934Z,65.44
2022-09-28T02:18:52.165Z,64.81
2022-09-28T02:21:27.641Z,63.63
2022-09-28T02:24:02.157Z,63.51
2022-09-28T02:26:36.143Z,63.57
2022-09-28T02:29:06.218Z,63.30
2022-09-28T02:31:35.857Z,61.99
2022-09-28T02:34:04.341Z,63.57
2022-09-28T02:36:34.664Z,63.30
2022-09-28T02:39:03.375Z,63.88
2022-09-28T02:41:47.496Z,64.04
2022-09-28T02:44:39.019Z,63.60
2022-09-28T02:47:17.908Z,62.76
2022-09-28T02:49:55.820Z,62.51
2022-09-28T02:52:57.180Z,62.84
2022-09-28T02:55:40.791Z,62.41
2022-09-28T02:58:23.292Z,62.93
2022-09-28T03:01:02.619Z,62.54
2022-09-28T03:03:38.380Z,62.43
2022-09-28T03:06:14.813Z,63.37
2022-09-28T03:08:55.640Z,63.92
2022-09-28T03:11:33.202Z,63.87
2022-09-28T03:14:03.185Z,63.15
2022-09-28T03:16:46.285Z,62.56
2022-09-28T03:19:17.340Z,62.88
2022-09-28T03:21:46.324Z,61.46
2022-09-28T03:24:14.750Z,61.61
2022-09-28T03:26:43.053Z,63.08
2022-09-28T03:29:12.909Z,63.91
2022-09-28T03:31:41.605Z,65.00
2022-09-28T03:34:11.823Z,67.64
2022-09-28T03:36:40.481Z,68.93
2022-09-28T03:39:08.859Z,69.54
2022-09-28T03:41:38.318Z,69.53
2022-09-28T03:44:07.028Z,68.19
2022-09-28T03:46:35.962Z,67.57
2022-09-28T03:49:11.369Z,66.66
2022-09-28T03:51:39.809Z,66.65
2022-09-28T03:54:10.523Z,67.68
2022-09-28T03:56:38.977Z,67.23
2022-09-28T03:59:07.844Z,66.45
2022-09-28T04:01:38.224Z,65.52
2022-09-28T04:04:07.097Z,65.12
2022-09-28T04:06:37.709Z,65.64
2022-09-28T04:09:06.868Z,65.17
2022-09-28T04:11:59.382Z,64.70
2022-09-28T04:14:24.715Z,63.99
2022-09-28T04:16:54.883Z,65.71
2022-09-28T04:19:25.521Z,65.17
2022-09-28T04:22:24.790Z,64.25
2022-09-28T04:24:53.340Z,63.48
2022-09-28T04:27:39.415Z,64.03
2022-09-28T04:30:09.820Z,63.55
2022-09-28T04:32:38.941Z,63.07
2022-09-28T04:35:08.491Z,63.26
2022-09-28T04:37:38.444Z,64.21
2022-09-28T04:40:07.796Z,64.68
2022-09-28T04:42:36.900Z,63.89
2022-09-28T04:45:06.525Z,64.18
2022-09-28T04:47:38.665Z,63.59
2022-09-28T04:50:30.430Z,63.17
2022-09-28T04:53:14.177Z,63.17
2022-09-28T04:55:43.200Z,63.69
2022-09-28T04:58:11.529Z,63.47
2022-09-28T05:00:40.398Z,64.53
2022-09-28T05:03:19.544Z,64.15
2022-09-28T05:06:15.968Z,63.99
2022-09-28T05:08:47.949Z,63.75
2022-09-28T05:11:18.374Z,63.13
2022-09-28T05:13:48.497Z,64.11
2022-09-28T05:16:20.454Z,65.11
2022-09-28T05:19:12.523Z,65.67
2022-09-28T05:21:46.875Z,66.39
2022-09-28T05:24:17.556Z,66.56
2022-09-28T05:26:51.722Z,67.74
2022-09-28T05:29:21.138Z,68.65
2022-09-28T05:32:08.558Z,69.57
2022-09-28T05:34:41.006Z,68.90
2022-09-28T05:37:13.432Z,67.64
2022-09-28T05:39:43.174Z,66.97
2022-09-28T05:42:11.525Z,65.89
2022-09-28T05:44:40.101Z,65.56
2022-09-28T05:47:08.546Z,64.62
2022-09-28T05:49:36.949Z,64.49
2022-09-28T05:52:05.502Z,63.19
2022-09-28T05:54:37.328Z,62.51
2022-09-28T05:57:07.614Z,61.86
2022-09-28T05:59:36.563Z,62.84
2022-09-28T06:02:06.037Z,62.99
2022-09-28T06:04:34.722Z,62.47
2022-09-28T06:07:03.393Z,63.05
2022-09-28T06:09:31.905Z,63.48
2022-09-28T06:12:03.212Z,63.79
2022-09-28T06:14:41.400Z,63.36
2022-09-28T06:17:09.900Z,63.65
2022-09-28T06:19:39.090Z,62.97
2022-09-28T06:22:17.597Z,62.76
2022-09-28T06:25:08.688Z,63.00
2022-09-28T06:27:37.743Z,61.70
2022-09-28T06:30:08.472Z,61.38
2022-09-28T06:32:37.889Z,58.88
2022-09-28T06:35:08.802Z,59.52
2022-09-28T06:37:37.440Z,59.13
2022-09-28T06:40:08.922Z,58.86
2022-09-28T06:42:37.764Z,57.95
2022-09-28T06:45:27.012Z,55.57
2022-09-28T06:48:33.480Z,55.66
2022-09-28T06:51:03.789Z,54.55
2022-09-28T06:53:41.540Z,51.55
2022-09-28T06:56:12.870Z,52.13
2022-09-28T06:58:41.218Z,51.91
2022-09-28T07:01:12.131Z,51.75
2022-09-28T07:03:55.549Z,53.24
2022-09-28T07:06:48.223Z,52.87
2022-09-28T07:09:50.292Z,53.56
2022-09-28T07:12:32.313Z,54.97
2022-09-28T07:15:03.874Z,55.28
2022-09-28T07:17:46.454Z,55.46
2022-09-28T07:20:25.120Z,54.07
2022-09-28T07:22:58.455Z,55.65
2022-09-28T07:25:31.582Z,53.74
2022-09-28T07:28:20.375Z,54.11
2022-09-28T07:31:09.648Z,53.35
2022-09-28T07:34:09.049Z,53.46
2022-09-28T07:36:59.651Z,53.31
2022-09-28T07:39:28.445Z,54.25
2022-09-28T07:41:59.788Z,53.26
2022-09-28T07:44:31.479Z,52.30
2022-09-28T07:47:02.612Z,52.95
2022-09-28T07:49:52.517Z,51.85
2022-09-28T07:52:39.169Z,51.94
2022-09-28T07:55:15.861Z,51.82
2022-09-28T07:58:08.656Z,51.44
2022-09-28T08:01:08.623Z,53.38
2022-09-28T08:03:38.061Z,51.93
2022-09-28T08:06:12.665Z,52.32
2022-09-28T08:08:43.879Z,53.17
2022-09-28T08:11:18.130Z,53.81
2022-09-28T08:14:07.225Z,52.51
2022-09-28T08:17:01.235Z,53.58
2022-09-28T08:20:03.824Z,53.89
2022-09-28T08:22:33.947Z,51.27
2022-09-28T08:25:03.102Z,52.01
2022-09-28T08:27:31.526Z,51.82
2022-09-28T08:29:59.911Z,52.27
2022-09-28T08:32:49.837Z,52.70
2022-09-28T08:35:47.295Z,53.69
2022-09-28T08:38:24.572Z,52.43
2022-09-28T08:41:36.993Z,51.39
2022-09-28T08:44:23.951Z,51.51
2022-09-28T08:47:39.451Z,51.64
2022-09-28T08:50:50.648Z,51.39
2022-09-28T08:54:08.148Z,51.13
2022-09-28T08:56:53.923Z,51.25
2022-09-28T09:02:22.637Z,50.73
2022-09-28T09:04:53.163Z,50.48
2022-09-28T09:07:47.899Z,48.31
2022-09-28T09:10:37.414Z,48.08
2022-09-28T09:13:23.608Z,47.48
2022-09-28T09:16:03.356Z,48.35
2022-09-28T09:18:57.402Z,45.85
2022-09-28T09:21:42.428Z,46.98
2022-09-28T09:24:27.108Z,46.67
2022-09-28T09:27:07.125Z,47.29
2022-09-28T09:29:56.729Z,46.94
2022-09-28T09:32:54.931Z,46.72
2022-09-28T09:35:53.940Z,48.53
2022-09-28T09:38:52.390Z,49.31
2022-09-28T09:41:54.629Z,49.01
2022-09-28T09:45:08.115Z,48.85
2022-09-28T09:47:52.895Z,48.88
2022-09-28T09:50:30.815Z,49.06
2022-09-28T09:53:05.989Z,49.08
2022-09-28T09:55:41.893Z,49.60
2022-09-28T09:58:32.640Z,49.90
2022-09-28T10:01:31.453Z,47.69
2022-09-28T10:04:30.836Z,47.80
2022-09-28T10:07:05.485Z,47.72
2022-09-28T10:09:40.745Z,47.03
2022-09-28T10:12:34.317Z,47.02
2022-09-28T10:15:05.360Z,47.00
2022-09-28T10:17:45.304Z,46.55
2022-09-28T10:20:36.254Z,47.51
2022-09-28T10:23:33.998Z,47.93
2022-09-28T10:26:08.034Z,48.08
2022-09-28T10:28:44.185Z,46.73
2022-09-28T10:31:35.485Z,46.95
2022-09-28T10:34:08.176Z,48.78
2022-09-28T10:36:48.219Z,47.82
2022-09-28T10:39:31.293Z,47.56
2022-09-28T10:42:03.582Z,48.16
2022-09-28T10:44:35.774Z,48.00
2022-09-28T10:47:26.186Z,48.67
2022-09-28T10:49:57.562Z,48.74
2022-09-28T10:52:36.570Z,48.28
2022-09-28T10:55:27.197Z,48.90
2022-09-28T10:57:56.175Z,49.98
2022-09-28T11:00:36.174Z,49.98
2022-09-28T11:03:24.308Z,48.45
2022-09-28T11:05:59.128Z,48.63
2022-09-28T11:08:31.601Z,49.25
2022-09-28T11:11:05.484Z,50.08
2022-09-28T11:13:41.151Z,47.32
2022-09-28T11:16:22.016Z,47.78
2022-09-28T11:18:51.154Z,47.72
2022-09-28T11:21:26.601Z,47.04
2022-09-28T11:24:07.281Z,46.18
2022-09-28T11:26:43.735Z,47.65
2022-09-28T11:29:23.431Z,46.40
2022-09-28T11:32:08.996Z,46.92
2022-09-28T11:35:00.536Z,45.71
2022-09-28T11:37:46.999Z,44.68
2022-09-28T11:40:28.821Z,45.25
2022-09-28T11:43:10.696Z,44.21
2022-09-28T11:45:53.608Z,46.51
2022-09-28T11:48:26.821Z,44.61
2022-09-28T11:51:02.028Z,43.94
2022-09-28T11:53:36.107Z,46.42
2022-09-28T11:56:12.019Z,43.35
2022-09-28T11:58:45.574Z,43.43
2022-09-28T12:01:26.348Z,42.61
2022-09-28T12:04:16.061Z,43.47
2022-09-28T12:06:50.927Z,43.86
2022-09-28T12:09:29.109Z,43.32
2022-09-28T12:12:22.408Z,42.06
2022-09-28T12:15:17.935Z,42.41
2022-09-28T12:17:51.782Z,42.28
2022-09-28T12:20:25.477Z,43.46
2022-09-28T12:23:05.005Z,43.63
2022-09-28T12:25:42.079Z,43.95
2022-09-28T12:28:23.099Z,43.83
2022-09-28T12:30:53.760Z,43.71
2022-09-28T12:33:22.503Z,44.17
2022-09-28T12:36:07.771Z,44.75
2022-09-28T12:39:08.474Z,44.99
2022-09-28T12:41:56.431Z,44.88
2022-09-28T12:44:41.704Z,45.09
2022-09-28T12:47:27.007Z,45.69
2022-09-28T12:53:38.812Z,45.50
2022-09-28T12:56:21.551Z,45.75
2022-09-28T12:59:04.455Z,46.36
2022-09-28T13:01:59.018Z,45.63
2022-09-28T13:04:45.088Z,45.79
2022-09-28T13:07:21.612Z,46.67
2022-09-28T13:10:02.378Z,46.40
2022-09-28T13:12:46.655Z,46.43
2022-09-28T13:15:43.677Z,46.07
2022-09-28T13:18:20.770Z,46.64
2022-09-28T13:21:16.816Z,47.03
2022-09-28T13:23:48.457Z,46.18
2022-09-28T13:26:25.409Z,46.24
2022-09-28T13:28:57.088Z,47.33
2022-09-28T13:31:33.181Z,47.17
2022-09-28T13:34:05.985Z,46.86
2022-09-28T13:36:39.480Z,46.91
2022-09-28T13:39:37.163Z,47.28
2022-09-28T13:42:09.969Z,47.22
2022-09-28T13:44:52.147Z,46.24
2022-09-28T13:47:44.452Z,47.14
2022-09-28T13:50:28.628Z,46.67
2022-09-28T13:53:05.263Z,47.79
2022-09-28T13:55:49.113Z,47.96
2022-09-28T13:58:24.703Z,47.20
2022-09-28T14:01:01.247Z,47.51
2022-09-28T14:03:44.757Z,47.69
2022-09-28T14:06:25.431Z,47.21
2022-09-28T14:09:10.754Z,46.34
2022-09-28T14:11:44.483Z,47.62
2022-09-28T14:14:48.651Z,46.95
2022-09-28T14:18:00.528Z,46.90
2022-09-28T14:20:32.533Z,47.76
2022-09-28T14:23:45.282Z,46.96
2022-09-28T14:26:41.964Z,47.73
2022-09-28T14:29:27.853Z,48.38
2022-09-28T14:31:58.835Z,48.06
2022-09-28T14:34:34.216Z,48.52
2022-09-28T14:37:24.645Z,47.76
2022-09-28T14:40:11.270Z,47.92
2022-09-28T14:42:40.259Z,49.02
2022-09-28T14:45:36.039Z,48.07
2022-09-28T14:48:20.276Z,48.08
2022-09-28T14:50:50.064Z,48.32
2022-09-28T14:53:23.197Z,48.73
2022-09-28T14:55:56.313Z,48.45
2022-09-28T14:58:27.532Z,48.60
2022-09-28T15:01:11.116Z,48.76
2022-09-28T15:03:43.406Z,49.14
2022-09-28T15:06:15.966Z,49.67
2022-09-28T15:08:45.787Z,49.57
2022-09-28T15:11:19.949Z,49.50
2022-09-28T15:13:48.405Z,49.68
2022-09-28T15:16:18.857Z,49.87
2022-09-28T15:19:15.706Z,49.64
2022-09-28T15:21:47.522Z,49.96
2022-09-28T15:24:31.432Z,50.01
2022-09-28T15:27:00.850Z,50.16
2022-09-28T15:29:33.571Z,50.29
2022-09-28T15:32:03.988Z,50.19
2022-09-28T15:34:51.606Z,50.94
2022-09-28T15:37:23.265Z,50.75
2022-09-28T15:39:54.486Z,50.60
2022-09-28T15:42:23.654Z,50.62
2022-09-28T15:45:07.799Z,50.82
2022-09-28T15:47:40.054Z,51.34
2022-09-28T15:50:21.211Z,51.34
2022-09-28T15:52:56.057Z,51.98
2022-09-28T15:55:29.212Z,52.24
2022-09-28T15:58:16.720Z,51.49
2022-09-28T16:00:46.488Z,51.35
2022-09-28T16:03:24.905Z,51.93
2022-09-28T16:06:07.022Z,52.20
2022-09-28T16:08:42.180Z,53.42
2022-09-28T16:11:18.390Z,52.71
2022-09-28T16:13:57.332Z,53.40
2022-09-28T16:16:30.349Z,53.27
2022-09-28T16:19:01.815Z,53.25
2022-09-28T16:21:43.730Z,53.16
2022-09-28T16:24:21.564Z,53.39
2022-09-28T16:26:59.393Z,53.34
2022-09-28T16:29:40.130Z,53.47
2022-09-28T16:32:38.313Z,53.77
2022-09-28T16:35:20.519Z,53.62
2022-09-28T16:37:55.401Z,54.22
2022-09-28T16:40:24.247Z,54.19
2022-09-28T16:42:57.219Z,54.67
2022-09-28T16:45:25.993Z,54.33
2022-09-28T16:47:57.612Z,54.53
2022-09-28T16:50:26.739Z,54.56
2022-09-28T16:53:19.735Z,54.26
2022-09-28T16:55:50.174Z,54.49
2022-09-28T16:58:20.136Z,54.98
2022-09-28T17:00:48.500Z,54.76
2022-09-28T17:03:19.346Z,54.67
2022-09-28T17:05:49.106Z,54.66
2022-09-28T17:08:19.654Z,54.50
2022-09-28T17:11:13.993Z,54.11
2022-09-28T17:13:44.058Z,53.86
2022-09-28T17:16:14.850Z,54.40
2022-09-28T17:18:43.356Z,54.40
2022-09-28T17:21:15.800Z,54.67
2022-09-28T17:23:44.994Z,54.73
2022-09-28T17:26:20.252Z,55.04
2022-09-28T17:28:50.622Z,55.25
2022-09-28T17:31:19.135Z,55.06
2022-09-28T17:33:47.541Z,55.51
2022-09-28T17:36:19.147Z,55.37
2022-09-28T17:38:49.277Z,55.20
2022-09-28T17:41:20.615Z,55.81
2022-09-28T17:43:51.138Z,55.31
2022-09-28T17:46:29.011Z,55.18
2022-09-28T17:49:00.101Z,55.04
2022-09-28T17:51:30.231Z,55.80
2022-09-28T17:54:01.059Z,54.86
2022-09-28T17:56:32.571Z,55.08
2022-09-28T17:59:05.065Z,54.63
2022-09-28T18:01:35.135Z,55.40
2022-09-28T18:04:05.185Z,55.16
2022-09-28T18:06:34.458Z,55.31
2022-09-28T18:09:04.303Z,55.50
2022-09-28T18:11:35.338Z,55.71
2022-09-28T18:14:10.457Z,55.55
2022-09-28T18:16:39.771Z,55.34
2022-09-28T18:19:08.346Z,55.53
2022-09-28T18:21:36.980Z,55.90
2022-09-28T18:24:05.679Z,56.14
2022-09-28T18:26:34.449Z,56.31
2022-09-28T18:29:02.908Z,56.45
2022-09-28T18:31:33.082Z,56.73
2022-09-28T18:34:01.967Z,56.61
2022-09-28T18:36:30.674Z,56.99
2022-09-28T18:39:01.503Z,57.02
2022-09-28T18:41:30.503Z,56.04
2022-09-28T18:44:01.279Z,56.02
2022-09-28T18:46:36.791Z,56.38
2022-09-28T18:49:07.243Z,56.46
2022-09-28T18:51:35.670Z,56.42
2022-09-28T18:54:07.295Z,55.96
2022-09-28T18:56:38.007Z,55.94
2022-09-28T18:59:09.960Z,55.81
2022-09-28T19:01:43.368Z,56.45
2022-09-28T19:04:13.614Z,55.95
2022-09-28T19:06:44.729Z,55.78
2022-09-28T19:09:13.529Z,55.86
2022-09-28T19:11:42.404Z,55.72
2022-09-28T19:14:15.290Z,56.39
2022-09-28T19:16:44.803Z,57.56
2022-09-28T19:19:18.805Z,58.04
2022-09-28T19:21:48.118Z,57.70
2022-09-28T19:24:18.473Z,57.12
2022-09-28T19:26:48.703Z,56.68
2022-09-28T19:29:17.637Z,56.60
2022-09-28T19:31:46.308Z,56.21
2022-09-28T19:34:16.680Z,55.89
2022-09-28T19:36:45.756Z,55.68
2022-09-28T19:39:15.401Z,55.23
2022-09-28T19:41:49.586Z,54.84
2022-09-28T19:44:25.080Z,54.76
2022-09-28T19:46:56.060Z,54.40
2022-09-28T19:49:33.106Z,54.57
2022-09-28T19:52:12.568Z,53.92
2022-09-28T19:54:43.908Z,53.47
2022-09-28T19:57:16.049Z,53.97
2022-09-28T19:59:47.491Z,52.58
2022-09-28T20:02:19.888Z,50.94
2022-09-28T20:04:53.629Z,50.88
2022-09-28T20:07:22.166Z,50.76
2022-09-28T20:09:51.664Z,50.71
2022-09-28T20:12:20.255Z,49.81
2022-09-28T20:14:49.075Z,50.21
2022-09-28T20:17:19.435Z,50.61
2022-09-28T20:19:48.270Z,50.88
2022-09-28T20:22:20.047Z,51.33
2022-09-28T20:24:49.351Z,52.01
2022-09-28T20:27:17.863Z,51.89
2022-09-28T20:29:46.362Z,52.24
2022-09-28T20:32:15.062Z,52.66
2022-09-28T20:34:43.483Z,53.11
2022-09-28T20:37:13.792Z,53.54
2022-09-28T20:39:45.200Z,52.74
2022-09-28T20:42:15.492Z,52.94
2022-09-28T20:44:44.494Z,52.48
2022-09-28T20:47:12.869Z,52.23
2022-09-28T20:49:41.621Z,52.05
2022-09-28T20:52:10.595Z,51.40
2022-09-28T20:54:39.076Z,51.43
2022-09-28T20:57:17.608Z,50.80
2022-09-28T20:59:49.797Z,51.08
2022-09-28T21:02:22.434Z,51.18
2022-09-28T21:04:51.152Z,50.55
2022-09-28T21:07:19.767Z,50.78
2022-09-28T21:09:48.454Z,51.11
2022-09-28T21:12:19.196Z,50.69
2022-09-28T21:14:47.626Z,50.89
2022-09-28T21:17:16.027Z,50.81
2022-09-28T21:19:44.814Z,50.67
2022-09-28T21:22:13.554Z,50.19
2022-09-28T21:24:41.897Z,49.82
2022-09-28T21:27:10.726Z,49.63
2022-09-28T21:29:40.560Z,49.76
2022-09-28T21:32:09.222Z,50.26
2022-09-28T21:34:37.978Z,50.12
2022-09-28T21:37:07.020Z,50.12
2022-09-28T21:39:35.514Z,49.87
2022-09-28T21:42:04.517Z,49.79
2022-09-28T21:44:32.927Z,49.93
2022-09-28T21:47:02.753Z,50.04
2022-09-28T21:49:31.336Z,50.07
2022-09-28T21:51:59.717Z,49.79
2022-09-28T21:54:28.928Z,49.26
2022-09-28T21:56:57.512Z,49.52
2022-09-28T21:59:25.920Z,49.26
2022-09-28T22:01:54.352Z,48.92
2022-09-28T22:04:24.232Z,49.54
2022-09-28T22:06:52.589Z,49.84
2022-09-28T22:09:20.939Z,49.23
2022-09-28T22:11:49.725Z,49.14
2022-09-28T22:14:18.133Z,49.23
2022-09-28T22:16:46.481Z,48.86
2022-09-28T22:19:15.155Z,48.47
2022-09-28T22:21:45.049Z,49.28
2022-09-28T22:24:13.733Z,48.64
2022-09-28T22:26:42.363Z,48.67
2022-09-28T22:29:10.953Z,49.35
2022-09-28T22:31:41.265Z,48.12
2022-09-28T22:34:11.061Z,47.53
2022-09-28T22:36:39.658Z,47.50
2022-09-28T22:39:09.603Z,47.74
2022-09-28T22:41:38.114Z,47.08
2022-09-28T22:44:06.710Z,46.98
2022-09-28T22:46:35.178Z,47.18
2022-09-28T22:49:03.842Z,46.07
2022-09-28T22:51:32.613Z,46.57
2022-09-28T22:54:01.283Z,45.98
2022-09-28T22:56:31.681Z,45.93
2022-09-28T22:59:00.715Z,45.93
2022-09-28T23:01:31.035Z,46.12
2022-09-28T23:04:00.885Z,46.11
2022-09-28T23:06:30.824Z,46.20
2022-09-28T23:08:59.338Z,46.17
2022-09-28T23:11:28.773Z,46.19
2022-09-28T23:14:00.393Z,45.60
2022-09-28T23:16:30.220Z,45.35
2022-09-28T23:18:58.833Z,46.19
2022-09-28T23:21:28.286Z,45.82
2022-09-28T23:23:58.510Z,45.42
2022-09-28T23:26:29.115Z,45.24
2022-09-28T23:28:59.881Z,45.18
2022-09-28T23:31:30.510Z,45.57
2022-09-28T23:34:00.093Z,45.18
2022-09-28T23:36:28.921Z,45.18
2022-09-28T23:38:57.596Z,44.77
2022-09-28T23:41:26.282Z,44.61
2022-09-28T23:43:54.984Z,44.76
2022-09-28T23:46:24.810Z,44.94
2022-09-28T23:48:53.722Z,45.26
2022-09-28T23:51:22.442Z,45.02
2022-09-28T23:53:50.889Z,45.28
2022-09-28T23:56:19.888Z,45.62
2022-09-28T23:58:48.286Z,45.49
